Gaylord, MI (49734)

3:29 AM EST on February 06, 2016 (GMT -0500)
NonFedAWOS | | Change Station
CLOSE
Current Station
Personal Weather Station
Location: Gaylord, MI
Elevation: 1327 ft
Nearby Weather Stations

Elev 1327 ft 45.01 °N, 84.70 °W | Updated 36 minutes ago

Overcast
Overcast
20 °F
Feels Like 8 °F
N
12
Wind Variable Wind from SW
Gusts 0.0 mph

Today
High -- | Low -- °F
--% Chance of Precip.
Yesterday
High -- | Low -- °F
Precip. -- in
Pressure 30.19 in
Visibility 10.0 miles
Clouds Few 6500 ft
Overcast 11000 ft
Windchill 8 °F
Dew Point 15 °F
Humidity 81%
Rainfall in
Snow Depth Not available.
7:52 AM 5:53 PM
Waning Crescent, 7% visible
METAR KGLR 060753Z AUTO 23010KT 10SM FEW065 OVC110 M07/M09 A3013 RMK AO2 SLP223 T10671094
Pressure 30.19 in
Visibility 10.0 miles
Clouds Few 6500 ft
Overcast 11000 ft
Windchill 8 °F
Dew Point 15 °F
Humidity 81%
Rainfall in
Snow Depth Not available.
7:52 AM 5:53 PM
Waning Crescent, 7% visible
METAR KGLR 060753Z AUTO 23010KT 10SM FEW065 OVC110 M07/M09 A3013 RMK AO2 SLP223 T10671094

10-Day Weather Forecast

Almanac

Astronomy

Feb. 06, 2016 Rise Set
Actual Time
Civil Twilight
Nautical Twilight
Astronomical Twilight
Moon
Length of Visible Light
Length of Day
Tomorrow will be .
, % of the Moon is Illuminated

Today's Extremes

State Highs State Lows

Community

WunderPhotos

Upload Photos

1,890,933 photos uploaded!

WunderBlog® & News

Nearby

Air Quality

  Air Quality AQ Index Pollutant
Not available.

Snow Depth

Station Depth Elevation

Earthquake Activity

City Distance Mag. Time & Date
Minimum magnitude displayed is 2.5.

Coastal Water Temperatures

Place Temperature

Stations

Nearby Weather Stations

Station Location Temp. Windchill Dew Point Humidity Wind Precip. Elev Updated Type
                   

Watches & Warnings

There are currently no watches in effect.